Time;durP1;ratioP1;P1;durP2;ratioP2;P2;SDS_P1;SDS_P2;PMS_P1;PMS_P2;Temp;Humidity;BMP_temperature;BMP_pressure;BME280_temperature;BME280_humidity;BME280_pressure;Samples;Min_cycle;Max_cycle;Signal;HPM_P1;HPM_P2
2022/11/21 00:00:00;;;;;;;93.50;64.00;;;;;;;-3.75;65.43;99610.79;108521;1278;21945;-80
2022/11/21 00:02:56;;;;;;;86.90;60.40;;;;;;;-3.75;65.59;99611.64;108514;1275;21932;-79
2022/11/21 00:05:39;;;;;;;;;;;;;;;-3.71;65.83;99611.33;108474;1275;22100;-79
2022/11/21 00:08:23;;;;;;;91.20;61.10;;;;;;;-3.73;66.05;99607.60;108484;1275;21773;-80
2022/11/21 00:11:12;;;;;;;92.10;61.70;;;;;;;-3.71;66.07;99604.88;108754;1275;21935;-79
2022/11/21 00:14:13;;;;;;;;;;;;;;;;;;;;;
2022/11/21 00:16:57;;;;;;;86.90;59.50;;;;;;;-3.64;66.06;99592.86;108751;1277;24318;-80
2022/11/21 00:19:41;;;;;;;90.40;60.60;;;;;;;-3.62;66.05;99592.55;108702;1276;23632;-79
2022/11/21 00:22:19;;;;;;;84.10;60.10;;;;;;;-3.59;66.01;99590.69;108282;1275;21953;-78
2022/11/21 00:25:02;;;;;;;82.80;57.60;;;;;;;-3.58;65.89;99592.90;108038;1282;22028;-79
2022/11/21 00:29:13;;;;;;;;;;;;;;;;;;;;;
2022/11/21 00:33:32;;;;;;;;;;;;;;;;;;;;;
2022/11/21 00:36:58;;;;;;;91.70;61.50;;;;;;;-3.66;65.97;99587.91;106587;1300;22768;-80
2022/11/21 00:40:14;;;;;;;87.90;58.60;;;;;;;-3.66;66.06;99593.02;106004;1306;21982;-79
2022/11/21 00:43:56;;;;;;;;;;;;;;;;;;;;;
2022/11/21 00:46:57;;;;;;;;;;;;;;;;;;;;;
2022/11/21 00:50:22;;;;;;;;;;;;;;;;;;;;;
2022/11/21 00:53:49;;;;;;;;;;;;;;;;;;;;;
2022/11/21 00:57:04;;;;;;;;;;;;;;;;;;;;;
2022/11/21 01:00:07;;;;;;;89.80;59.80;;;;;;;-3.96;66.17;99596.34;105960;1304;23718;-79
2022/11/21 01:03:15;;;;;;;86.60;59.90;;;;;;;-4.06;66.19;99593.02;105952;1303;22138;-79
2022/11/21 01:06:52;;;;;;;;;;;;;;;;;;;;;
2022/11/21 01:10:27;;;;;;;;;;;;;;;;;;;;;
2022/11/21 01:14:02;;;;;;;;;;;;;;;;;;;;;
2022/11/21 01:17:54;;;;;;;;;;;;;;;;;;;;;
2022/11/21 01:22:16;;;;;;;80.30;54.60;;;;;;;-4.41;67.22;99590.30;106968;1297;23074;-79
2022/11/21 01:26:44;;;;;;;;;;;;;;;;;;;;;
2022/11/21 01:30:13;;;;;;;;;;;;;;;;;;;;;
2022/11/21 01:33:49;;;;;;;89.90;62.40;;;;;;;-4.59;67.72;99584.17;106227;1303;23104;-78
2022/11/21 01:37:09;;;;;;;;;;;;;;;;;;;;;
2022/11/21 01:40:14;;;;;;;90.80;59.40;;;;;;;-4.65;68.00;99588.51;106101;1300;22428;-79
2022/11/21 01:43:50;;;;;;;;;;;;;;;;;;;;;
2022/11/21 01:47:20;;;;;;;;;;;;;;;;;;;;;
2022/11/21 01:50:27;;;;;;;83.00;58.00;;;;;;;-4.68;68.24;99591.19;106836;1294;21974;-81
2022/11/21 01:54:30;;;;;;;;;;;;;;;;;;;;;
2022/11/21 01:57:52;;;;;;;;;;;;;;;;;;;;;
2022/11/21 02:05:08;;;;;;;;;;;;;;;;;;;;;
2022/11/21 02:08:47;;;;;;;68.40;46.30;;;;;;;-4.91;68.62;99591.77;105966;1309;21970;-79
2022/11/21 02:12:28;;;;;;;;;;;;;;;;;;;;;
2022/11/21 02:15:35;;;;;;;;;;;;;;;;;;;;;
2022/11/21 02:18:51;;;;;;;;;;;;;;;;;;;;;
2022/11/21 02:28:48;;;;;;;73.50;48.30;;;;;;;-4.79;69.14;99554.40;105039;1315;23652;-80
2022/11/21 02:32:09;;;;;;;67.50;47.20;;;;;;;-4.78;69.34;99543.37;105127;1315;21975;-78
2022/11/21 02:35:05;;;;;;;68.90;47.20;;;;;;;-4.76;69.37;99539.30;105623;1303;22026;-79
2022/11/21 02:38:32;;;;;;;;;;;;;;;;;;;;;
2022/11/21 02:41:31;;;;;;;71.00;44.20;;;;;;;-4.67;69.44;99536.53;106185;1297;22007;-78
2022/11/21 02:45:04;;;;;;;77.50;49.30;;;;;;;-4.60;69.73;99532.35;106322;1297;21968;-79
2022/11/21 02:48:46;;;;;;;;;;;;;;;;;;;;;
2022/11/21 02:51:53;;;;;;;;;;;;;;;;;;;;;
2022/11/21 02:55:14;;;;;;;;;;;;;;;;;;;;;
2022/11/21 02:58:04;;;;;;;78.30;50.70;;;;;;;-4.25;69.83;99521.66;106520;1297;22085;-78
2022/11/21 03:00:57;;;;;;;;;;;;;;;;;;;;;
2022/11/21 03:04:20;;;;;;;71.00;48.90;;;;;;;-4.13;69.58;99511.90;106598;1297;21973;-79
2022/11/21 03:07:24;;;;;;;71.20;49.70;;;;;;;-4.17;69.21;99513.91;107221;1294;22390;-79
2022/11/21 03:10:58;;;;;;;74.40;50.00;;;;;;;-4.24;69.29;99513.52;106176;1303;21982;-78
2022/11/21 03:14:21;;;;;;;71.90;43.80;;;;;;;-4.29;69.37;99508.38;106068;1303;23068;-78
2022/11/21 03:21:17;;;;;;;70.30;47.40;;;;;;;-4.34;69.58;99510.36;105729;1309;22644;-77
2022/11/21 03:25:08;;;;;;;;;;;;;;;;;;;;;
2022/11/21 03:28:24;;;;;;;;;;;;;;;;;;;;;
2022/11/21 03:31:20;;;;;;;69.40;48.90;;;;;;;-4.42;69.72;99493.64;106300;1301;23033;-78
2022/11/21 03:33:57;;;;;;;69.40;49.00;;;;;;;-4.31;70.01;99498.49;106147;1301;24413;-79
2022/11/21 03:36:24;;;;;;;65.10;46.20;;;;;;;-4.23;69.87;99492.27;106131;1298;21959;-78
2022/11/21 03:39:01;;;;;;;70.50;49.80;;;;;;;-4.20;69.87;99487.04;106227;1301;22114;-79
2022/11/21 03:41:58;;;;;;;68.30;47.80;;;;;;;-4.22;69.82;99489.21;106042;1304;21961;-80
2022/11/21 03:44:24;;;;;;;74.30;50.70;;;;;;;-4.26;69.98;99483.94;106617;1298;21973;-78
2022/11/21 03:46:55;;;;;;;79.60;51.60;;;;;;;-4.28;70.11;99474.91;106498;1297;22322;-79
2022/11/21 03:49:24;;;;;;;71.90;52.10;;;;;;;-4.31;70.26;99470.63;106927;1297;23599;-77
2022/11/21 03:51:55;;;;;;;77.90;55.00;;;;;;;-4.32;70.39;99465.02;106573;1297;24059;-79
2022/11/21 03:54:23;;;;;;;79.60;55.40;;;;;;;-4.30;70.41;99456.88;106578;1297;23746;-79
2022/11/21 03:56:55;;;;;;;74.60;53.30;;;;;;;-4.25;70.48;99448.78;106369;1289;23716;-78
2022/11/21 03:59:25;;;;;;;79.30;57.30;;;;;;;-4.19;70.49;99449.31;107415;1283;22282;-79
2022/11/21 04:01:56;;;;;;;75.30;54.90;;;;;;;-4.17;70.40;99452.41;107966;1283;21921;-78
2022/11/21 04:04:26;;;;;;;74.50;53.40;;;;;;;-4.16;70.44;99451.38;108011;1274;21922;-79
2022/11/21 04:06:56;;;;;;;70.80;50.40;;;;;;;-4.13;70.45;99446.31;108532;1274;21999;-79
2022/11/21 04:09:25;;;;;;;72.30;52.30;;;;;;;-4.11;70.64;99435.61;108468;1274;21934;-80
2022/11/21 04:11:56;;;;;;;70.90;51.50;;;;;;;-4.07;70.64;99434.96;108540;1267;24260;-79
2022/11/21 04:14:28;;;;;;;71.40;49.70;;;;;;;-4.05;70.63;99439.06;108549;1274;24290;-79
2022/11/21 04:17:00;;;;;;;68.80;50.10;;;;;;;-4.03;70.88;99440.43;108272;1278;21958;-78
2022/11/21 04:19:37;;;;;;;72.70;51.10;;;;;;;-4.00;70.84;99438.75;108082;1280;21937;-79
2022/11/21 04:22:08;;;;;;;69.90;48.50;;;;;;;-3.95;70.95;99435.05;108075;1283;22251;-78
2022/11/21 04:24:37;;;;;;;66.10;48.60;;;;;;;-3.91;71.07;99424.70;108148;1280;22083;-79
2022/11/21 04:27:07;;;;;;;65.40;45.90;;;;;;;-3.85;71.11;99419.63;108072;1280;23245;-79
2022/11/21 04:29:36;;;;;;;63.90;46.70;;;;;;;-3.80;71.38;99415.08;108188;1280;23083;-79
2022/11/21 04:32:05;;;;;;;63.80;46.60;;;;;;;-3.76;71.41;99407.95;108045;1280;23070;-79
2022/11/21 04:34:36;;;;;;;66.80;48.60;;;;;;;-3.72;71.42;99406.27;108138;1276;24291;-79
2022/11/21 04:37:12;;;;;;;64.30;47.20;;;;;;;-3.70;71.43;99401.69;108381;1277;21924;-78
2022/11/21 04:39:42;;;;;;;66.40;47.60;;;;;;;-3.66;71.42;99403.74;108072;1280;22938;-77
2022/11/21 04:42:20;;;;;;;62.90;46.40;;;;;;;-3.60;71.38;99400.88;108099;1280;23006;-77
2022/11/21 04:44:49;;;;;;;66.50;47.60;;;;;;;-3.52;71.44;99403.80;108147;1280;23012;-78
2022/11/21 04:47:19;;;;;;;64.50;47.90;;;;;;;-3.45;71.44;99405.20;108089;1280;22011;-79
2022/11/21 04:49:50;;;;;;;61.90;47.30;;;;;;;-3.42;71.40;99405.05;108292;1280;21962;-78
2022/11/21 04:52:19;;;;;;;67.60;49.50;;;;;;;-3.39;71.49;99395.52;108101;1282;23591;-79
2022/11/21 04:54:48;;;;;;;61.00;45.20;;;;;;;-3.38;71.46;99382.76;108168;1280;22117;-80
2022/11/21 04:57:19;;;;;;;62.50;46.70;;;;;;;-3.34;71.48;99377.16;108357;1276;21931;-80
2022/11/21 04:59:49;;;;;;;68.80;49.90;;;;;;;-3.30;71.51;99378.02;108829;1274;23047;-79
2022/11/21 05:02:20;;;;;;;66.70;49.00;;;;;;;-3.26;71.45;99377.69;108526;1273;24145;-78
2022/11/21 05:04:52;;;;;;;;;;;;;;;-3.23;71.38;99374.13;108576;1273;21911;-78
2022/11/21 05:07:23;;;;;;;60.50;44.20;;;;;;;-3.23;71.56;99368.16;108088;1280;21956;-78
2022/11/21 05:09:52;;;;;;;58.50;44.20;;;;;;;-3.21;71.53;99367.66;108185;1280;23681;-78
2022/11/21 05:15:10;;;;;;;70.30;49.20;;;;;;;-3.09;71.61;99364.79;108168;1280;23581;-79
2022/11/21 05:17:39;;;;;;;79.00;54.30;;;;;;;-2.98;71.65;99364.30;108331;1279;22361;-79
2022/11/21 05:20:13;;;;;;;73.70;49.90;;;;;;;-2.89;71.57;99353.57;108183;1279;21939;-77
2022/11/21 05:22:48;;;;;;;73.80;51.80;;;;;;;-2.81;71.57;99346.77;107864;1276;23621;-79
2022/11/21 05:25:30;;;;;;;;;;;;;;;;;;;;;
2022/11/21 05:28:38;;;;;;;84.00;55.70;;;;;;;-2.66;71.55;99338.25;108390;1280;22522;-79
2022/11/21 05:31:11;;;;;;;86.00;53.00;;;;;;;-2.61;71.31;99330.41;108198;1280;23641;-78
2022/11/21 05:33:57;;;;;;;75.80;51.40;;;;;;;-2.56;71.14;99329.56;108092;1280;23331;-79
2022/11/21 05:36:29;;;;;;;75.50;50.20;;;;;;;-2.52;70.93;99328.02;108234;1280;23074;-79
2022/11/21 05:39:03;;;;;;;70.10;50.80;;;;;;;-2.51;70.86;99326.66;107832;1286;23678;-79
2022/11/21 05:41:41;;;;;;;74.30;49.70;;;;;;;-2.51;70.73;99321.55;107752;1279;23038;-77
2022/11/21 05:44:25;;;;;;;73.90;51.60;;;;;;;-2.52;70.70;99318.98;108030;1282;21966;-79
2022/11/21 05:46:59;;;;;;;70.90;49.50;;;;;;;-2.53;70.62;99316.95;108063;1280;21937;-78
2022/11/21 05:49:38;;;;;;;105.10;63.20;;;;;;;-2.51;70.67;99314.74;108070;1280;22032;-78
2022/11/21 05:53:04;;;;;;;147.40;83.30;;;;;;;-2.48;70.75;99310.65;108286;1280;23080;-78
2022/11/21 05:56:07;;;;;;;75.70;52.90;;;;;;;-2.42;70.81;99311.30;108222;1280;22222;-81
2022/11/21 05:58:58;;;;;;;64.20;48.00;;;;;;;-2.36;70.83;99311.30;108149;1274;23715;-78
2022/11/21 06:05:03;;;;;;;65.10;46.40;;;;;;;-2.29;70.66;99308.90;108772;1275;21954;-80
2022/11/21 06:07:50;;;;;;;64.30;47.60;;;;;;;-2.24;70.65;99300.37;108721;1274;23591;-79
2022/11/21 06:11:30;;;;;;;;;;;;;;;;;;;;;
2022/11/21 06:20:02;;;;;;;68.70;45.80;;;;;;;-2.16;70.63;99295.06;108621;1276;23099;-80
2022/11/21 06:23:01;;;;;;;;;;;;;;;;;;;;;
2022/11/21 06:26:22;;;;;;;61.00;44.10;;;;;;;-2.16;70.49;99282.27;108224;1277;23169;-79
2022/11/21 06:29:37;;;;;;;61.70;44.30;;;;;;;-2.15;70.42;99283.80;108514;1278;23138;-79
2022/11/21 06:32:53;;;;;;;64.70;47.20;;;;;;;-2.12;70.46;99288.06;108520;1277;23959;-80
2022/11/21 06:35:44;;;;;;;61.20;47.60;;;;;;;-2.08;70.45;99290.77;108663;1274;24426;-79
2022/11/21 06:38:41;;;;;;;72.70;50.10;;;;;;;-2.03;70.51;99293.14;108573;1264;23048;-80
2022/11/21 06:41:22;;;;;;;65.60;48.10;;;;;;;-1.99;70.55;99281.19;108456;1275;21924;-79
2022/11/21 06:44:00;;;;;;;59.70;45.60;;;;;;;-1.86;70.57;99279.09;108725;1275;23747;-79
2022/11/21 06:46:33;;;;;;;64.10;43.90;;;;;;;-1.78;70.49;99279.05;108697;1275;22796;-78
2022/11/21 06:49:18;;;;;;;62.60;44.50;;;;;;;-1.72;70.48;99285.66;108620;1269;21925;-79
2022/11/21 06:51:53;;;;;;;61.20;46.70;;;;;;;-1.65;70.50;99288.70;108849;1274;21959;-80
2022/11/21 06:54:22;;;;;;;73.90;53.10;;;;;;;-1.57;70.44;99287.64;108500;1275;22397;-79
2022/11/21 06:56:57;;;;;;;76.10;50.50;;;;;;;-1.49;70.33;99284.19;108530;1275;21935;-80
2022/11/21 06:59:36;;;;;;;70.90;49.70;;;;;;;-1.46;70.23;99280.40;108606;1274;21948;-79
2022/11/21 07:02:39;;;;;;;65.60;48.20;;;;;;;-1.44;70.22;99276.81;108500;1274;22368;-80
2022/11/21 07:05:37;;;;;;;;;;;;;;;;;;;;;
2022/11/21 07:08:20;;;;;;;71.00;50.00;;;;;;;-1.37;70.21;99268.23;108608;1273;21927;-79
2022/11/21 07:10:49;;;;;;;73.50;53.40;;;;;;;-1.34;70.14;99265.64;108477;1275;21925;-78
2022/11/21 07:14:01;;;;;;;63.90;47.90;;;;;;;-1.35;70.08;99263.61;108575;1275;23719;-79
2022/11/21 07:17:02;;;;;;;73.60;54.60;;;;;;;-1.35;70.08;99261.05;108428;1278;22328;-79
2022/11/21 07:20:27;;;;;;;;;;;;;;;;;;;;;
2022/11/21 07:23:57;;;;;;;;;;;;;;;;;;;;;
2022/11/21 07:26:49;;;;;;;71.50;47.20;;;;;;;-1.29;70.30;99253.33;107989;1286;21955;-79
2022/11/21 07:29:50;;;;;;;68.60;49.10;;;;;;;-1.24;70.22;99243.23;107718;1286;22085;-78
2022/11/21 07:32:44;;;;;;;72.10;47.60;;;;;;;-1.17;70.35;99248.62;107851;1286;23688;-77
2022/11/21 07:35:42;;;;;;;74.80;53.50;;;;;;;-1.12;70.32;99252.17;107982;1281;23833;-79
2022/11/21 07:39:24;;;;;;;;;;;;;;;;;;;;;
2022/11/21 07:42:47;;;;;;;;;;;;;;;;;;;;;
2022/11/21 07:46:24;;;;;;;67.60;47.70;;;;;;;-0.99;70.33;99248.66;108334;1281;21955;-76
2022/11/21 07:49:20;;;;;;;70.80;53.40;;;;;;;-0.91;70.27;99245.52;108273;1281;22889;-78
2022/11/21 07:52:28;;;;;;;67.60;46.90;;;;;;;-0.86;70.37;99245.64;107514;1283;21950;-78
2022/11/21 07:55:15;;;;;;;60.40;46.30;;;;;;;-0.77;70.29;99247.09;107346;1292;22333;-78
2022/11/21 07:58:07;;;;;;;68.70;48.80;;;;;;;-0.70;70.23;99245.48;107058;1295;21990;-76
2022/11/21 08:00:47;;;;;;;75.80;54.90;;;;;;;-0.67;70.13;99247.00;106816;1298;21967;-77
2022/11/21 08:03:35;;;;;;;79.60;55.70;;;;;;;-0.63;70.04;99247.48;106710;1295;21993;-79
2022/11/21 08:06:46;;;;;;;77.30;55.60;;;;;;;-0.62;69.92;99241.65;107102;1292;22817;-77
2022/11/21 08:09:56;;;;;;;71.80;52.10;;;;;;;-0.62;69.92;99236.88;107002;1289;24308;-78
2022/11/21 08:13:00;;;;;;;;;;;;;;;;;;;;;
2022/11/21 08:16:26;;;;;;;68.50;47.90;;;;;;;-0.59;69.86;99230.85;107249;1292;21952;-78
2022/11/21 08:20:10;;;;;;;;;;;;;;;;;;;;;
2022/11/21 08:23:39;;;;;;;63.80;47.80;;;;;;;-0.48;70.13;99230.23;107808;1286;24758;-78
2022/11/21 08:26:42;;;;;;;67.70;45.60;;;;;;;-0.37;70.15;99230.27;107870;1281;23091;-78
2022/11/21 08:29:46;;;;;;;66.40;50.30;;;;;;;-0.28;70.02;99227.44;108257;1280;22939;-77
2022/11/21 08:33:22;;;;;;;69.30;48.10;;;;;;;-0.19;70.04;99229.04;108586;1274;21905;-77
2022/11/21 08:36:14;;;;;;;71.50;51.60;;;;;;;-0.12;69.96;99225.02;107974;1278;22258;-77
2022/11/21 08:39:00;;;;;;;76.80;48.90;;;;;;;-0.05;69.75;99223.56;108062;1283;23136;-80
2022/11/21 08:42:06;;;;;;;75.80;48.20;;;;;;;-0.02;69.69;99224.04;108496;1283;22648;-80
2022/11/21 08:44:56;;;;;;;71.40;47.90;;;;;;;0.04;69.66;99219.00;108397;1284;21933;-81
2022/11/21 08:48:05;;;;;;;68.70;46.90;;;;;;;0.12;69.67;99215.30;107915;1289;22069;-79
2022/11/21 08:50:44;;;;;;;74.60;51.10;;;;;;;0.17;69.59;99213.35;107546;1289;23684;-79
2022/11/21 08:53:15;;;;;;;65.10;46.20;;;;;;;0.22;69.56;99207.81;107656;1289;21959;-80
2022/11/21 08:55:58;;;;;;;;;;;;;;;;;;;;;
2022/11/21 08:58:40;;;;;;;56.60;41.70;;;;;;;0.23;69.61;99203.70;107838;1289;21957;-80
2022/11/21 09:01:15;;;;;;;64.60;44.20;;;;;;;0.27;69.65;99207.92;107513;1289;22158;-80
2022/11/21 09:03:57;;;;;;;61.20;43.90;;;;;;;0.30;69.80;99206.15;107893;1289;21944;-79
2022/11/21 09:06:42;;;;;;;58.30;42.50;;;;;;;0.37;69.87;99204.70;108216;1283;21933;-79
2022/11/21 09:09:17;;;;;;;56.10;42.40;;;;;;;0.44;69.89;99210.05;108333;1283;23771;-79
2022/11/21 09:11:57;;;;;;;52.00;41.40;;;;;;;0.50;69.76;99209.96;108143;1283;24113;-79
2022/11/21 09:18:03;;;;;;;57.00;42.80;;;;;;;0.50;69.73;99208.42;108767;1275;23049;-80
2022/11/21 09:20:41;;;;;;;59.40;44.70;;;;;;;0.54;69.74;99213.00;108588;1278;23100;-80
2022/11/21 09:23:17;;;;;;;58.40;44.90;;;;;;;0.57;69.78;99210.21;107869;1283;21939;-80
2022/11/21 09:25:54;;;;;;;54.20;42.40;;;;;;;0.59;69.81;99210.17;108308;1283;21941;-80
2022/11/21 09:28:44;;;;;;;62.30;45.10;;;;;;;0.64;69.91;99203.24;108248;1283;21989;-79
2022/11/21 09:31:24;;;;;;;63.40;46.00;;;;;;;0.69;69.82;99197.86;108183;1283;21945;-78
2022/11/21 09:33:58;;;;;;;61.50;46.10;;;;;;;0.73;69.87;99197.27;108012;1283;21950;-78
2022/11/21 09:36:35;;;;;;;;;;;;;;;0.78;69.85;99191.55;108005;1283;22079;-79
2022/11/21 09:39:44;;;;;;;57.50;43.20;;;;;;;0.76;70.01;99189.34;108412;1280;21950;-79
2022/11/21 09:43:34;;;;;;;56.10;43.50;;;;;;;0.78;70.04;99189.67;108704;1275;22645;-79
2022/11/21 09:46:24;;;;;;;64.20;45.50;;;;;;;0.79;70.09;99188.45;107995;1286;21970;-79
2022/11/21 09:49:13;;;;;;;58.50;46.00;;;;;;;0.85;70.07;99186.63;107846;1286;21948;-80
2022/11/21 09:51:48;;;;;;;69.80;50.90;;;;;;;0.93;70.04;99184.45;108126;1286;22890;-80
2022/11/21 09:54:38;;;;;;;59.00;47.00;;;;;;;1.00;69.98;99188.95;107892;1286;21938;-80
2022/11/21 09:57:36;;;;;;;62.60;47.90;;;;;;;1.02;69.83;99190.80;108033;1286;22231;-80
2022/11/21 10:00:33;;;;;;;58.60;44.50;;;;;;;1.02;69.85;99191.33;108218;1289;21970;-79
2022/11/21 10:03:29;;;;;;;62.60;45.20;;;;;;;1.07;69.99;99193.11;108127;1286;21902;-80
2022/11/21 10:07:37;;;;;;;65.80;48.10;;;;;;;1.12;70.01;99193.88;108381;1280;22075;-79
2022/11/21 10:10:41;;;;;;;63.10;47.90;;;;;;;1.19;70.00;99191.19;108578;1281;21952;-79
2022/11/21 10:14:52;;;;;;;63.30;45.90;;;;;;;1.22;69.94;99191.47;108228;1276;21989;-79
2022/11/21 10:18:11;;;;;;;67.00;51.30;;;;;;;1.22;70.06;99184.27;108348;1281;21936;-84
2022/11/21 10:22:11;;;;;;;;;;;;;;;;;;;;;
2022/11/21 10:25:41;;;;;;;71.70;56.90;;;;;;;1.39;70.39;99172.31;105478;1283;21955;-78
2022/11/21 10:29:55;;;;;;;;;;;;;;;;;;;;;
2022/11/21 10:38:01;;;;;;;;;;;;;;;;;;;;;
2022/11/21 10:41:03;;;;;;;65.00;48.10;;;;;;;1.81;70.40;99167.69;106114;1303;21974;-76
2022/11/21 10:48:13;;;;;;;71.30;58.20;;;;;;;2.25;70.05;99162.44;105428;1310;546788;-77
2022/11/21 10:51:22;;;;;;;67.30;55.60;;;;;;;2.34;70.03;99163.45;108119;1284;23647;-77
2022/11/21 10:55:15;;;;;;;75.90;58.10;;;;;;;2.43;69.90;99158.59;108763;1266;24277;-77
2022/11/21 10:58:48;;;;;;;93.30;71.40;;;;;;;2.56;69.86;99161.39;108655;1273;21936;-77
2022/11/21 11:02:14;;;;;;;67.10;54.80;;;;;;;2.68;69.69;99164.86;106153;1275;3456901;-78
2022/11/21 11:05:48;;;;;;;79.00;62.80;;;;;;;2.80;69.60;99163.52;108400;1276;22203;-77
2022/11/21 11:09:45;;;;;;;;;;;;;;;;;;;;;
2022/11/21 11:16:19;;;;;;;61.40;50.40;;;;;;;3.05;69.18;99156.71;107458;1291;22896;-80
2022/11/21 11:20:29;;;;;;;57.50;44.30;;;;;;;3.12;68.98;99152.92;107510;1282;24448;-77
2022/11/21 11:23:23;;;;;;;52.70;44.90;;;;;;;3.16;68.90;99154.73;107119;1290;21969;-77
2022/11/21 11:26:40;;;;;;;52.00;43.40;;;;;;;3.25;69.02;99153.95;106684;1296;22750;-76
2022/11/21 11:29:29;;;;;;;57.50;46.40;;;;;;;3.40;69.20;99147.84;106850;1294;21969;-75
2022/11/21 11:32:50;;;;;;;;;;;;;;;;;;;;;
2022/11/21 11:37:05;;;;;;;56.10;43.50;;;;;;;3.67;68.62;99157.59;107273;1292;24313;-75
2022/11/21 11:40:19;;;;;;;56.60;44.20;;;;;;;3.75;68.34;99159.61;107354;1283;21983;-76
2022/11/21 11:54:11;;;;;;;60.50;49.00;;;;;;;3.87;67.74;99156.14;108227;1273;21968;-76
2022/11/21 11:57:26;;;;;;;52.40;43.30;;;;;;;3.93;67.53;99163.03;107735;1277;23607;-76
2022/11/21 12:00:39;;;;;;;;;;;;;;;;;;;;;
2022/11/21 12:04:28;;;;;;;;;;;;;;;;;;;;;
2022/11/21 12:07:38;;;;;;;60.20;48.70;;;;;;;4.03;67.29;99171.50;107705;1286;22004;-76
2022/11/21 12:18:21;;;;;;;59.70;45.90;;;;;;;4.16;67.21;99177.33;108508;1274;24518;-78
2022/11/21 12:21:37;;;;;;;57.80;44.50;;;;;;;4.21;67.30;99172.38;108461;1280;22103;-76
2022/11/21 12:24:33;;;;;;;75.40;66.10;;;;;;;4.26;67.06;99172.55;108094;1276;21927;-76
2022/11/21 12:27:33;;;;;;;53.90;44.10;;;;;;;4.25;66.93;99168.61;107459;1286;22912;-75
2022/11/21 12:30:51;;;;;;;57.70;47.50;;;;;;;4.25;67.05;99171.73;107969;1283;21933;-75
2022/11/21 12:38:01;;;;;;;58.80;45.10;;;;;;;4.25;67.02;99167.73;107572;1288;22126;-75
2022/11/21 12:56:48;;;;;;;61.70;45.40;;;;;;;4.67;66.83;99161.77;107535;1282;22344;-78
2022/11/21 13:00:08;;;;;;;48.20;39.20;;;;;;;4.71;66.57;99163.21;108010;1283;23073;-79
2022/11/21 13:03:32;;;;;;;56.10;44.50;;;;;;;4.71;66.31;99163.19;107451;1278;23724;-78
2022/11/21 13:06:23;;;;;;;49.30;39.30;;;;;;;4.76;66.32;99167.17;107337;1290;24035;-75
2022/11/21 13:09:22;;;;;;;49.60;40.30;;;;;;;4.80;66.20;99169.48;107354;1280;22105;-75
2022/11/21 13:12:28;;;;;;;46.90;38.00;;;;;;;4.85;66.07;99174.30;106649;1291;21995;-75
2022/11/21 13:15:32;;;;;;;51.90;43.00;;;;;;;4.85;66.03;99179.29;106820;1297;23633;-75
2022/11/21 13:18:27;;;;;;;49.60;41.40;;;;;;;4.83;65.83;99185.39;107481;1289;21929;-76
2022/11/21 13:20:59;;;;;;;57.20;45.80;;;;;;;4.78;65.60;99187.08;107491;1285;21943;-76
2022/11/21 13:23:45;;;;;;;53.40;46.10;;;;;;;4.80;65.67;99190.14;108197;1277;21932;-76
2022/11/21 13:26:23;;;;;;;55.70;47.90;;;;;;;4.78;65.75;99190.01;108375;1277;24471;-75
2022/11/21 13:29:18;;;;;;;58.20;48.70;;;;;;;4.80;65.66;99191.34;108428;1274;22712;-75
2022/11/21 13:32:48;;;;;;;59.20;46.00;;;;;;;4.75;65.61;99188.56;108955;1269;22732;-76
2022/11/21 13:35:25;;;;;;;52.90;42.70;;;;;;;4.73;65.56;99192.10;108880;1263;21896;-76
2022/11/21 13:38:07;;;;;;;45.90;38.50;;;;;;;4.71;65.54;99197.48;108940;1262;22388;-76
2022/11/21 13:42:56;;;;;;;49.90;39.90;;;;;;;4.70;65.66;99198.03;108829;1259;21991;-75
2022/11/21 13:43:36;;;;;;;45.30;36.60;;;;;;;4.68;65.69;99202.92;108834;1266;22705;-76
2022/11/21 13:49:25;;;;;;;42.90;34.70;;;;;;;4.67;66.09;99209.86;108863;1264;21927;-75
2022/11/21 13:51:55;;;;;;;45.60;36.00;;;;;;;4.70;66.23;99211.84;108560;1277;23084;-75
2022/11/21 13:55:03;;;;;;;37.70;30.30;;;;;;;4.72;66.18;99212.46;108476;1271;21936;-76
2022/11/21 13:58:08;;;;;;;36.50;29.10;;;;;;;4.71;66.23;99218.00;108556;1274;22136;-74
2022/11/21 14:01:24;;;;;;;37.10;27.90;;;;;;;4.65;66.15;99224.39;108565;1271;21975;-75
2022/11/21 14:04:33;;;;;;;33.10;27.30;;;;;;;4.62;66.38;99228.80;108493;1275;21938;-75
2022/11/21 14:07:27;;;;;;;32.80;24.50;;;;;;;4.59;66.47;99229.59;108528;1277;24348;-75
2022/11/21 14:10:19;;;;;;;33.30;25.80;;;;;;;4.56;66.48;99228.66;108604;1271;21932;-75
2022/11/21 14:12:50;;;;;;;31.20;27.90;;;;;;;4.56;66.69;99230.52;108864;1270;24085;-75
2022/11/21 14:15:56;;;;;;;31.60;25.60;;;;;;;4.57;66.81;99230.86;108939;1271;22806;-76
2022/11/21 14:18:32;;;;;;;29.80;24.00;;;;;;;4.53;66.92;99232.35;108924;1271;22568;-76
2022/11/21 14:21:03;;;;;;;32.30;26.70;;;;;;;4.52;66.95;99229.80;108905;1271;21983;-76
2022/11/21 14:23:36;;;;;;;37.10;29.30;;;;;;;4.51;66.77;99228.61;108933;1271;23011;-76
2022/11/21 14:26:16;;;;;;;35.30;26.60;;;;;;;4.48;66.85;99232.16;108793;1271;23023;-76
2022/11/21 14:29:00;;;;;;;32.00;28.40;;;;;;;4.46;67.06;99233.60;108326;1276;23790;-76
2022/11/21 14:31:49;;;;;;;34.20;27.30;;;;;;;4.43;67.14;99235.58;108380;1277;21934;-76
2022/11/21 14:34:27;;;;;;;32.60;27.90;;;;;;;4.41;67.19;99238.21;108424;1278;21947;-76
2022/11/21 14:37:08;;;;;;;38.10;32.60;;;;;;;4.39;67.26;99241.72;108426;1278;21943;-77
2022/11/21 14:39:45;;;;;;;33.80;28.50;;;;;;;4.38;67.41;99248.14;108490;1278;22765;-76
2022/11/21 14:42:23;;;;;;;;;;;;;;;4.36;67.47;99249.07;108459;1278;23563;-76
2022/11/21 14:45:07;;;;;;;35.60;30.30;;;;;;;4.26;67.68;99250.58;108483;1277;22190;-77
2022/11/21 14:47:45;;;;;;;39.20;30.90;;;;;;;4.24;67.82;99252.52;108397;1277;23010;-76
2022/11/21 14:50:27;;;;;;;41.70;31.90;;;;;;;4.22;67.76;99253.07;108431;1275;24290;-76
2022/11/21 14:53:00;;;;;;;42.50;33.50;;;;;;;4.20;67.75;99255.20;108437;1277;23796;-76
2022/11/21 14:55:31;;;;;;;42.80;34.20;;;;;;;4.20;67.92;99259.52;108308;1277;21933;-76
2022/11/21 14:58:05;;;;;;;48.10;36.20;;;;;;;4.20;68.01;99265.73;108316;1278;23088;-76
2022/11/21 15:00:37;;;;;;;41.20;33.80;;;;;;;4.18;67.99;99268.36;108479;1278;21949;-75
2022/11/21 15:03:26;;;;;;;44.00;35.20;;;;;;;4.13;68.08;99273.16;108336;1278;22463;-75
2022/11/21 15:06:10;;;;;;;50.00;40.20;;;;;;;4.08;67.83;99274.33;108637;1271;21930;-76
2022/11/21 15:08:39;;;;;;;43.90;37.20;;;;;;;3.97;67.93;99282.56;108711;1267;21975;-77
2022/11/21 15:11:51;;;;;;;50.60;41.10;;;;;;;3.88;68.05;99286.09;109120;1269;21945;-76
2022/11/21 15:14:24;;;;;;;55.50;44.40;;;;;;;3.81;68.18;99284.70;108865;1271;23579;-77
2022/11/21 15:16:57;;;;;;;53.80;45.10;;;;;;;3.77;68.19;99284.99;109045;1271;21960;-78
2022/11/21 15:19:28;;;;;;;53.40;42.70;;;;;;;3.72;68.18;99290.13;108690;1268;23574;-76
2022/11/21 15:22:04;;;;;;;52.40;44.40;;;;;;;3.68;68.22;99293.84;108685;1271;21922;-77
2022/11/21 15:24:42;;;;;;;52.90;45.60;;;;;;;3.66;68.46;99295.10;108818;1263;21931;-76
2022/11/21 15:27:32;;;;;;;58.10;44.90;;;;;;;3.62;68.41;99296.58;108468;1275;23619;-78
2022/11/21 15:30:40;;;;;;;52.80;43.70;;;;;;;3.57;68.42;99294.48;108603;1275;21964;-76
2022/11/21 15:33:19;;;;;;;53.70;44.70;;;;;;;3.49;68.60;99295.71;108963;1270;22502;-78
2022/11/21 15:36:14;;;;;;;55.50;43.50;;;;;;;3.48;68.74;99294.19;108871;1275;21950;-78
2022/11/21 15:39:24;;;;;;;57.10;44.60;;;;;;;3.44;68.78;99292.92;108483;1275;22191;-80
2022/11/21 15:42:33;;;;;;;61.20;47.20;;;;;;;3.38;68.78;99292.56;108426;1282;23758;-79
2022/11/21 15:46:02;;;;;;;65.20;52.80;;;;;;;3.36;68.89;99294.15;108702;1278;23018;-79
2022/11/21 15:49:58;;;;;;;;;;;;;;;;;;;;;
2022/11/21 15:54:14;;;;;;;72.20;58.70;;;;;;;3.25;69.10;99302.33;108393;1279;21954;-81
2022/11/21 15:57:49;;;;;;;;;;;;;;;;;;;;;
2022/11/21 16:01:37;;;;;;;80.50;60.80;;;;;;;3.20;69.07;99307.95;108113;1283;22419;-80
2022/11/21 16:04:38;;;;;;;89.90;68.10;;;;;;;3.19;69.33;99314.34;107870;1283;21996;-78
2022/11/21 16:07:12;;;;;;;84.60;68.10;;;;;;;3.22;69.24;99318.05;107799;1283;21942;-78
2022/11/21 16:10:07;;;;;;;87.10;70.70;;;;;;;3.20;69.01;99316.56;107623;1289;21945;-77
2022/11/21 16:13:10;;;;;;;92.70;68.90;;;;;;;3.17;68.94;99319.03;106941;1289;23646;-78
2022/11/21 16:15:55;;;;;;;100.10;73.20;;;;;;;3.09;68.98;99319.92;106205;1300;23861;-78
2022/11/21 16:18:57;;;;;;;89.00;68.10;;;;;;;3.00;68.82;99319.45;106311;1301;21981;-80
2022/11/21 16:21:49;;;;;;;91.00;68.80;;;;;;;2.94;68.86;99319.05;106175;1295;22902;-78